Time;durP1;ratioP1;P1;durP2;ratioP2;P2;SDS_P1;SDS_P2;PMS_P1;PMS_P2;Temp;Humidity;BMP_temperature;BMP_pressure;BME280_temperature;BME280_humidity;BME280_pressure;Samples;Min_cycle;Max_cycle;Signal;HPM_P1;HPM_P2
2020/12/02 00:39:11;;;;;;;25.70;15.43;;;;;;;-3.27;81.51;93486.84;3953397;28;20082;-91
2020/12/02 00:42:17;;;;;;;22.98;12.95;;;;;;;-4.26;80.79;93328.66;3935669;28;20058;-91
2020/12/02 00:51:34;;;;;;;37.85;18.17;;;;;;;-3.34;81.36;93473.13;3932169;29;20384;-91
2020/12/02 00:54:45;;;;;;;;;;;;;;;;;;;;;
2020/12/02 01:03:46;;;;;;;38.38;18.33;;;;;;;-3.77;82.57;93467.97;4010169;28;20088;-91
2020/12/02 01:06:29;;;;;;;;;;;;;;;;;;;;;
2020/12/02 01:09:11;;;;;;;;;;;;;;;;;;;;;
2020/12/02 01:15:15;;;;;;;27.73;19.25;;;;;;;-3.78;82.34;93485.66;4037350;28;20237;-91
2020/12/02 01:21:26;;;;;;;50.05;21.35;;;;;;;-4.20;82.94;93434.38;4022864;28;20066;-91
2020/12/02 01:24:15;;;;;;;31.95;17.27;;;;;;;-4.85;82.45;93348.84;4023397;28;20183;-91
2020/12/02 01:26:59;;;;;;;37.45;21.63;;;;;;;-4.45;82.88;93428.63;4023479;27;20072;-92
2020/12/02 01:29:43;;;;;;;;;;;;;;;;;;;;;
2020/12/02 01:32:17;;;;;;;39.67;23.10;;;;;;;-4.92;83.07;93360.25;4024002;28;20076;-92
2020/12/02 01:35:18;;;;;;;;;;;;;;;;;;;;;
2020/12/02 01:41:46;;;;;;;;;;;;;;;;;;;;;
2020/12/02 01:45:13;;;;;;;26.60;15.35;;;;;;;-3.91;83.95;93466.50;4025931;28;20064;-91
2020/12/02 01:48:05;;;;;;;41.25;15.80;;;;;;;-4.62;84.74;93343.84;4012308;35;20268;-91
2020/12/02 01:51:24;;;;;;;39.50;18.65;;;;;;;-3.77;84.46;93467.97;4019917;35;20104;-91
2020/12/02 01:54:15;;;;;;;27.00;17.42;;;;;;;-4.62;83.77;93337.13;4026939;35;20092;-91
2020/12/02 01:56:53;;;;;;;40.63;19.33;;;;;;;-4.68;83.72;93317.53;4023217;35;20080;-89
2020/12/02 01:59:56;;;;;;;;;;;;;;;;;;;;;
2020/12/02 02:15:33;;;;;;;20.95;12.45;;;;;;;-3.46;83.13;93466.56;4017288;28;20491;-91
2020/12/02 02:18:20;;;;;;;23.10;13.48;;;;;;;-4.00;82.49;93388.59;4023510;28;20500;-90
2020/12/02 02:20:50;;;;;;;41.25;15.93;;;;;;;-4.43;82.64;93323.22;4025476;35;20517;-91
2020/12/02 02:23:35;;;;;;;;;;;;;;;;;;;;;
2020/12/02 02:36:58;;;;;;;;;;;;;;;;;;;;;
2020/12/02 02:39:43;;;;;;;22.90;10.77;;;;;;;-3.44;82.17;93473.06;4023980;35;20082;-90
2020/12/02 02:42:37;;;;;;;;;;;;;;;;;;;;;
2020/12/02 02:45:56;;;;;;;25.65;12.63;;;;;;;-4.31;82.81;93336.53;4022940;28;20064;-90
2020/12/02 02:52:22;;;;;;;;;;;;;;;;;;;;;
2020/12/02 02:55:09;;;;;;;24.48;14.02;;;;;;;-3.69;82.48;93423.91;4022302;35;20416;-91
2020/12/02 02:57:52;;;;;;;28.17;12.57;;;;;;;-3.59;82.55;93439.88;4023050;28;20076;-91
2020/12/02 03:00:39;;;;;;;39.83;17.70;;;;;;;-3.74;82.71;93419.25;4025874;28;20074;-90
2020/12/02 03:03:36;;;;;;;23.85;16.08;;;;;;;-3.99;82.56;93377.66;4023215;28;20199;-90
2020/12/02 03:06:12;;;;;;;24.90;13.80;;;;;;;-3.98;82.40;93375.00;4009801;35;20084;-90
2020/12/02 03:12:11;;;;;;;33.10;14.18;;;;;;;-3.49;82.42;93434.94;4004583;28;20087;-91
2020/12/02 03:14:54;;;;;;;19.08;12.88;;;;;;;-3.13;82.41;93489.97;4009985;35;20087;-91
2020/12/02 03:17:27;;;;;;;25.73;13.25;;;;;;;-4.04;82.07;93352.91;4009670;35;20080;-90
2020/12/02 03:20:38;;;;;;;36.25;12.57;;;;;;;-3.13;81.77;93474.91;4043374;35;20066;-91
2020/12/02 03:23:12;;;;;;;19.73;13.13;;;;;;;-3.35;81.64;93453.97;4069437;27;20381;-91
2020/12/02 03:25:46;;;;;;;29.98;11.02;;;;;;;-3.41;81.12;93459.47;4065647;35;20074;-92
2020/12/02 03:28:46;;;;;;;;;;;;;;;;;;;;;
2020/12/02 03:31:44;;;;;;;20.27;10.82;;;;;;;-3.25;81.54;93474.13;4037984;35;20069;-90
2020/12/02 03:34:21;;;;;;;17.15;10.88;;;;;;;-4.30;81.15;93333.13;4066870;35;20071;-91
2020/12/02 03:36:53;;;;;;;18.83;9.90;;;;;;;-4.05;81.54;93374.72;4066975;27;20464;-91
2020/12/02 03:39:19;;;;;;;11.73;9.88;;;;;;;-3.67;81.42;93444.66;4066973;27;20530;-91
2020/12/02 03:41:46;;;;;;;14.88;8.55;;;;;;;-4.22;81.52;93358.41;4064118;27;20047;-91
2020/12/02 03:47:41;;;;;;;17.67;9.15;;;;;;;-3.51;81.19;93476.97;4130554;27;20109;-92
2020/12/02 03:50:33;;;;;;;21.75;9.50;;;;;;;-4.10;81.64;93403.56;4066970;27;20066;-91
2020/12/02 03:53:00;;;;;;;14.18;8.68;;;;;;;-3.82;81.66;93439.09;4067570;27;20047;-90
2020/12/02 03:55:28;;;;;;;19.23;11.25;;;;;;;-4.18;81.59;93404.94;4067783;35;20476;-91
2020/12/02 03:58:00;;;;;;;15.10;8.32;;;;;;;-4.61;81.23;93348.75;4067248;27;20047;-92
2020/12/02 04:00:27;;;;;;;17.27;9.50;;;;;;;-4.32;80.54;93407.66;4067587;27;20070;-90
2020/12/02 04:07:14;;;;;;;18.77;10.15;;;;;;;-4.16;81.03;93472.56;4078321;35;20164;-91
2020/12/02 04:09:43;;;;;;;9.38;7.68;;;;;;;-4.90;81.78;93394.31;4080426;27;20065;-91
2020/12/02 04:12:12;;;;;;;13.98;9.07;;;;;;;-4.45;81.67;93465.44;4079772;35;20074;-91
2020/12/02 04:18:05;;;;;;;13.02;6.55;;;;;;;-5.07;82.17;93379.66;4080124;35;20570;-92
2020/12/02 04:23:58;;;;;;;9.93;5.45;;;;;;;-5.45;81.04;93347.25;4079954;35;20409;-91
2020/12/02 04:53:54;;;;;;;9.05;5.47;;;;;;;-5.15;80.33;93493.72;4084956;27;20497;-92
2020/12/02 05:10:09;;;;;;;16.27;4.15;;;;;;;-5.50;79.73;93499.47;4085975;35;20085;-93
2020/12/02 05:34:07;;;;;;;27.02;9.40;;;;;;;-5.67;79.73;93528.94;4085074;27;20458;-91
2020/12/02 05:36:40;;;;;;;7.47;5.30;;;;;;;-5.99;78.77;93484.38;4080212;27;20046;-92
2020/12/02 05:40:05;;;;;;;4.47;4.07;;;;;;;-5.78;78.65;93536.38;4026055;35;20052;-92
2020/12/02 05:46:28;;;;;;;9.02;4.50;;;;;;;-5.87;79.59;93534.47;4026350;35;20232;-92
2020/12/02 06:36:18;;;;;;;11.07;6.88;;;;;;;-5.24;79.82;93575.31;4179548;27;20118;-94
2020/12/02 06:38:47;;;;;;;23.52;12.98;;;;;;;-5.04;80.42;93569.84;4080088;27;20047;-90
2020/12/02 06:41:42;;;;;;;21.48;14.27;;;;;;;-5.00;79.35;93564.50;4077434;35;20134;-91
2020/12/02 06:47:32;;;;;;;36.80;15.85;;;;;;;-5.12;79.36;93503.56;4079925;35;20062;-91
2020/12/02 07:28:01;;;;;;;89.28;40.08;;;;;;;-3.05;73.31;93451.69;4437608;27;20701;-93
2020/12/02 07:31:10;;;;;;;30.30;16.60;;;;;;;-2.18;72.52;93568.91;4077087;27;20054;-93
2020/12/02 07:40:51;;;;;;;30.83;13.48;;;;;;;-1.53;71.98;93545.25;4082326;27;20074;-93
2020/12/02 10:25:51;;;;;;;20.13;10.13;;;;;;;3.12;63.99;93459.88;3926022;29;20172;-92
2020/12/02 10:28:32;;;;;;;27.10;11.70;;;;;;;3.13;63.62;93456.38;3983437;28;20067;-90
2020/12/02 10:31:17;;;;;;;19.63;10.38;;;;;;;3.03;63.17;93439.59;3983353;28;20064;-90
2020/12/02 10:33:58;;;;;;;22.33;10.48;;;;;;;2.85;63.69;93421.97;3984263;28;20518;-91
2020/12/02 10:36:28;;;;;;;21.27;8.68;;;;;;;3.17;65.27;93450.88;3983091;28;20088;-90
2020/12/02 10:38:57;;;;;;;11.50;6.45;;;;;;;3.13;64.96;93449.56;3983467;28;20129;-91
2020/12/02 10:41:32;;;;;;;16.98;7.82;;;;;;;2.82;65.77;93449.38;3991954;28;20591;-91
2020/12/02 10:44:17;;;;;;;21.38;8.70;;;;;;;2.47;66.52;93444.38;4008008;28;20064;-90
2020/12/02 10:47:17;;;;;;;17.17;9.07;;;;;;;1.92;69.01;93439.56;4008339;28;20084;-91
2020/12/02 10:49:45;;;;;;;16.50;8.27;;;;;;;1.95;68.96;93406.31;4008279;28;20551;-92
2020/12/02 10:52:30;;;;;;;;;;;;;;;;;;;;;
2020/12/02 10:54:58;;;;;;;15.88;9.35;;;;;;;2.08;70.09;93426.19;4007698;28;20537;-91
2020/12/02 10:57:43;;;;;;;;;;;;;;;;;;;;;
2020/12/02 11:03:31;;;;;;;12.23;9.05;;;;;;;2.54;67.39;93399.69;3947499;28;20058;-92
2020/12/02 11:06:30;;;;;;;25.95;10.73;;;;;;;2.80;66.98;93431.78;4001944;35;20061;-91
2020/12/02 11:09:26;;;;;;;25.42;12.15;;;;;;;2.73;67.97;93418.91;4009108;28;20056;-91
2020/12/02 11:11:58;;;;;;;;;;;;;;;2.97;68.10;93414.84;4002194;35;20068;-92
2020/12/02 11:14:38;;;;;;;27.80;12.85;;;;;;;2.64;68.30;93415.56;4009173;28;19976;-91
2020/12/02 11:17:17;;;;;;;28.05;13.07;;;;;;;2.70;69.38;93408.28;4010149;28;20060;-89
2020/12/02 11:20:03;;;;;;;;;;;;;;;;;;;;;
2020/12/02 11:22:51;;;;;;;30.13;17.05;;;;;;;2.92;69.51;93414.53;4005649;35;20087;-90
2020/12/02 11:25:22;;;;;;;32.90;14.60;;;;;;;3.06;69.44;93413.09;4010117;35;20395;-89
2020/12/02 11:27:55;;;;;;;31.38;12.90;;;;;;;3.10;68.39;93411.03;4009401;35;20104;-91
2020/12/02 11:30:25;;;;;;;27.38;14.60;;;;;;;3.11;67.75;93412.63;4007816;35;20509;-91
2020/12/02 11:33:17;;;;;;;31.05;14.38;;;;;;;3.27;68.65;93407.53;4015289;28;20060;-89
2020/12/02 11:36:14;;;;;;;28.13;13.25;;;;;;;3.26;67.53;93400.88;4021523;28;20071;-90
2020/12/02 11:38:46;;;;;;;18.92;12.40;;;;;;;2.97;68.19;93392.00;4021274;28;20615;-91
2020/12/02 11:41:25;;;;;;;30.63;13.82;;;;;;;2.73;68.71;93380.88;4058765;28;20067;-90
2020/12/02 11:43:59;;;;;;;29.50;14.35;;;;;;;2.88;69.67;93395.47;4064729;27;20048;-90
2020/12/02 12:27:31;;;;;;;27.03;11.90;;;;;;;2.57;72.13;93368.97;3896346;36;20133;-92
2020/12/02 12:29:58;;;;;;;30.60;13.73;;;;;;;2.37;72.89;93355.78;3998271;36;20126;-91
2020/12/02 12:32:37;;;;;;;20.90;12.98;;;;;;;2.46;72.85;93389.56;4003899;28;20130;-91
2020/12/02 12:35:15;;;;;;;29.80;12.98;;;;;;;2.65;72.77;93383.41;4061179;35;20114;-92
2020/12/02 12:37:50;;;;;;;23.27;13.38;;;;;;;2.58;72.94;93383.22;4070473;27;20138;-91
2020/12/02 12:40:19;;;;;;;19.60;9.95;;;;;;;2.57;71.61;93378.31;4074893;27;20070;-92
2020/12/02 12:45:42;;;;;;;25.85;12.23;;;;;;;2.37;72.63;93356.56;4078599;27;20122;-93
2020/12/02 12:55:44;;;;;;;;;;;;;;;;;;;;;
2020/12/02 13:01:45;;;;;;;;;;;;;;;;;;;;;
2020/12/02 13:04:27;;;;;;;;;;;;;;;;;;;;;
2020/12/02 13:07:09;;;;;;;20.55;11.60;;;;;;;2.53;72.66;93357.53;4077434;35;20054;-93
2020/12/02 13:09:56;;;;;;;;;;;;;;;;;;;;;
2020/12/02 13:12:28;;;;;;;27.77;11.95;;;;;;;2.99;72.18;93379.94;4077404;27;20490;-91
2020/12/02 13:15:06;;;;;;;25.25;12.68;;;;;;;2.67;71.72;93333.31;4075238;35;20090;-91
2020/12/02 13:17:41;;;;;;;17.52;10.13;;;;;;;2.52;72.99;93374.50;4083552;35;20043;-93
2020/12/02 13:46:39;;;;;;;;;;;;;;;;;;;;;
2020/12/02 13:49:12;;;;;;;29.15;13.98;;;;;;;2.03;74.60;93303.44;3970446;35;20119;-94
2020/12/02 13:52:09;;;;;;;;;;;;;;;;;;;;;
2020/12/02 13:54:44;;;;;;;37.05;17.73;;;;;;;2.36;74.09;93332.16;4104595;27;20050;-91
2020/12/02 14:00:59;;;;;;;;;;;;;;;;;;;;;
2020/12/02 14:03:47;;;;;;;29.45;15.13;;;;;;;2.53;73.65;93360.88;4071912;27;20070;-91
2020/12/02 14:06:27;;;;;;;27.98;14.20;;;;;;;2.50;73.43;93368.78;4078913;27;20050;-92
2020/12/02 14:09:00;;;;;;;28.15;15.30;;;;;;;2.50;73.79;93365.47;4078206;27;20109;-91
2020/12/02 14:11:41;;;;;;;29.45;14.77;;;;;;;2.26;73.72;93327.25;4075247;27;20499;-91
2020/12/02 14:14:08;;;;;;;40.80;16.73;;;;;;;2.62;73.83;93366.75;4077810;35;20173;-91
2020/12/02 14:16:41;;;;;;;35.25;17.08;;;;;;;2.60;72.91;93367.88;4074703;27;20053;-91
2020/12/02 14:19:11;;;;;;;37.03;14.30;;;;;;;2.43;73.69;93350.09;4077164;35;20531;-91
2020/12/02 14:21:43;;;;;;;36.40;16.10;;;;;;;1.97;74.00;93285.38;4077328;35;20522;-90
2020/12/02 14:24:09;;;;;;;35.05;18.25;;;;;;;2.51;73.32;93367.06;4077717;35;20534;-91
2020/12/02 14:26:46;;;;;;;;;;;;;;;;;;;;;
2020/12/02 14:29:14;;;;;;;28.25;16.77;;;;;;;2.40;74.38;93363.88;4072695;35;20066;-91
2020/12/02 14:31:41;;;;;;;38.28;18.90;;;;;;;2.44;73.92;93382.09;4077578;27;20063;-90
2020/12/02 14:34:12;;;;;;;38.28;18.75;;;;;;;2.46;75.61;93375.13;4075840;27;20086;-90
2020/12/02 14:36:42;;;;;;;45.13;20.63;;;;;;;2.34;74.31;93356.88;4077494;35;20136;-91
2020/12/02 14:39:11;;;;;;;50.88;22.83;;;;;;;2.11;75.45;93333.84;4078876;27;20070;-90
2020/12/02 14:41:41;;;;;;;56.65;25.48;;;;;;;2.28;75.31;93365.13;4078121;27;20063;-91
2020/12/02 14:44:18;;;;;;;;;;;;;;;;;;;;;
2020/12/02 14:46:44;;;;;;;50.42;26.65;;;;;;;2.12;75.41;93360.78;4071306;28;20480;-92
2020/12/02 14:49:11;;;;;;;;;;;;;;;2.06;75.36;93369.81;4075218;27;20137;-90
2020/12/02 14:51:48;;;;;;;;;;;;;;;;;;;;;
2020/12/02 14:54:22;;;;;;;52.72;25.55;;;;;;;1.63;76.78;93336.88;4075195;28;20137;-92
2020/12/02 14:57:22;;;;;;;63.17;25.83;;;;;;;1.75;76.83;93372.06;4081207;27;20078;-91
2020/12/02 15:00:07;;;;;;;50.78;26.05;;;;;;;1.68;76.27;93366.78;4080713;35;20059;-92
2020/12/02 15:02:55;;;;;;;68.65;26.95;;;;;;;1.58;77.08;93370.22;4077542;35;20146;-90
2020/12/02 15:05:44;;;;;;;;;;;;;;;;;;;;;
2020/12/02 15:08:50;;;;;;;;;;;;;;;;;;;;;
2020/12/02 15:11:31;;;;;;;50.38;24.27;;;;;;;1.19;78.96;93385.78;4071146;27;20062;-90
2020/12/02 15:14:02;;;;;;;40.90;18.70;;;;;;;1.09;78.74;93385.91;4081133;27;20075;-90
2020/12/02 15:16:30;;;;;;;45.10;21.35;;;;;;;0.86;77.75;93338.31;4079846;35;20114;-89
2020/12/02 15:21:58;;;;;;;;;;;;;;;;;;;;;
2020/12/02 15:24:27;;;;;;;40.75;20.13;;;;;;;0.98;79.06;93384.41;4080289;27;20062;-90
2020/12/02 15:27:01;;;;;;;73.38;32.08;;;;;;;0.69;78.36;93342.44;4074361;27;20046;-90
2020/12/02 15:29:37;;;;;;;;;;;;;;;;;;;;;
2020/12/02 15:32:17;;;;;;;56.40;29.05;;;;;;;0.78;78.81;93392.13;4075055;35;20081;-89
2020/12/02 16:08:34;;;;;;;42.43;17.40;;;;;;;-0.04;81.57;93380.25;3896527;36;20488;-92
2020/12/02 16:11:08;;;;;;;36.55;20.38;;;;;;;0.09;81.59;93410.25;3960890;28;20208;-91
2020/12/02 16:13:57;;;;;;;41.95;21.98;;;;;;;0.07;82.12;93414.66;4034533;27;20098;-91
2020/12/02 16:19:40;;;;;;;;;;;;;;;;;;;;;
2020/12/02 16:22:24;;;;;;;54.78;22.88;;;;;;;-0.21;82.98;93378.47;4073374;27;20067;-90
2020/12/02 16:25:00;;;;;;;52.90;20.70;;;;;;;0.03;82.26;93415.84;4119672;27;20129;-89
2020/12/02 16:27:50;;;;;;;52.78;23.00;;;;;;;-0.71;82.77;93325.66;4074958;35;20166;-90
2020/12/02 16:30:24;;;;;;;47.65;25.40;;;;;;;-0.07;82.69;93425.19;4077874;28;20054;-89
2020/12/02 16:46:03;;;;;;;;;;;;;;;;;;;;;
2020/12/02 16:48:53;;;;;;;63.88;31.25;;;;;;;-0.31;84.04;93434.88;4014539;35;20108;-90
2020/12/02 16:51:47;;;;;;;;;;;;;;;;;;;;;
2020/12/02 16:54:35;;;;;;;53.95;29.88;;;;;;;-0.35;83.12;93442.84;4081634;27;20118;-90
2020/12/02 17:19:35;;;;;;;;;;;;;;;-0.45;83.58;93460.53;3993702;28;20120;-91
2020/12/02 17:22:24;;;;;;;;;;;;;;;;;;;;;
2020/12/02 17:25:23;;;;;;;;;;;;;;;;;;;;;
2020/12/02 17:28:30;;;;;;;58.03;26.90;;;;;;;-0.69;84.37;93461.75;4010407;35;20075;-90
2020/12/02 17:31:29;;;;;;;56.78;26.00;;;;;;;-0.83;83.95;93450.34;4028556;27;20608;-90
2020/12/02 17:34:06;;;;;;;50.55;26.58;;;;;;;-1.43;83.65;93366.34;4035141;28;20169;-89
2020/12/02 17:37:00;;;;;;;53.03;27.55;;;;;;;-0.75;83.67;93472.41;4034337;27;20079;-91
2020/12/02 17:39:51;;;;;;;;;;;;;;;;;;;;;
2020/12/02 17:42:47;;;;;;;71.45;31.83;;;;;;;-0.79;83.90;93479.41;4035247;28;20087;-92
2020/12/02 17:52:52;;;;;;;133.10;44.17;;;;;;;-0.99;84.04;93450.88;3988209;28;20109;-91
2020/12/02 17:55:31;;;;;;;55.97;26.83;;;;;;;-0.90;83.84;93470.25;4004133;28;20488;-91
2020/12/02 17:58:24;;;;;;;123.50;52.50;;;;;;;-1.04;85.45;93473.97;4026643;28;20095;-90
